Time;durP1;ratioP1;P1;durP2;ratioP2;P2;SDS_P1;SDS_P2;PMS_P1;PMS_P2;Temp;Humidity;BMP_temperature;BMP_pressure;BME280_temperature;BME280_humidity;BME280_pressure;Samples;Min_cycle;Max_cycle;Signal;HPM_P1;HPM_P2
2023/01/31 09:24:21;;;;;;;19.08;5.03;;;6.70;99.90;;;;;;7407957;19;20897;-86
2023/01/31 09:26:54;;;;;;;22.77;4.85;;;6.70;99.90;;;;;;7412225;19;20606;-85
2023/01/31 09:29:20;;;;;;;21.27;5.60;;;6.80;99.90;;;;;;7409333;19;20047;-86
2023/01/31 09:31:52;;;;;;;26.77;5.72;;;6.80;99.90;;;;;;7412437;19;20018;-86
2023/01/31 09:34:21;;;;;;;22.85;5.30;;;6.80;99.90;;;;;;7412678;19;20052;-85
2023/01/31 09:36:50;;;;;;;25.52;6.60;;;6.90;99.90;;;;;;7415434;19;20113;-85
2023/01/31 09:39:17;;;;;;;19.65;5.18;;;6.90;99.90;;;;;;7413669;19;20945;-86
2023/01/31 09:41:52;;;;;;;20.83;4.40;;;6.90;99.90;;;;;;7412761;19;20025;-86
2023/01/31 09:44:32;;;;;;;20.13;4.85;;;7.00;99.90;;;;;;7410941;19;20006;-86
2023/01/31 09:47:13;;;;;;;18.33;4.82;;;7.00;99.90;;;;;;7414364;19;20033;-86
2023/01/31 09:49:58;;;;;;;16.88;4.13;;;7.00;99.90;;;;;;7411818;19;20029;-86
2023/01/31 09:52:30;;;;;;;21.67;4.90;;;7.00;99.90;;;;;;7412250;19;20017;-87
2023/01/31 09:55:00;;;;;;;15.60;3.45;;;7.10;99.90;;;;;;7411799;19;20106;-86
2023/01/31 09:57:49;;;;;;;18.50;3.95;;;7.20;99.90;;;;;;7413098;19;20017;-87
2023/01/31 10:00:28;;;;;;;21.80;4.43;;;7.20;99.90;;;;;;7410560;19;20047;-87
2023/01/31 10:03:11;;;;;;;18.48;4.35;;;7.30;99.90;;;;;;7410358;19;20450;-87
2023/01/31 10:06:02;;;;;;;14.73;4.10;;;7.30;99.90;;;;;;7410888;19;20010;-86
2023/01/31 10:09:05;;;;;;;22.80;4.93;;;7.30;99.90;;;;;;7408020;19;20014;-87
2023/01/31 10:11:40;;;;;;;24.10;4.82;;;7.30;99.90;;;;;;7410290;19;20375;-87
2023/01/31 10:14:31;;;;;;;18.52;5.00;;;7.30;99.90;;;;;;7404886;19;20018;-86
2023/01/31 10:17:17;;;;;;;22.17;5.32;;;7.50;99.90;;;;;;7408957;19;20134;-86
2023/01/31 10:19:46;;;;;;;17.85;5.15;;;7.40;99.90;;;;;;7408296;19;20373;-87
2023/01/31 10:22:30;;;;;;;24.60;5.93;;;7.40;99.90;;;;;;7410043;19;20018;-86
2023/01/31 10:25:29;;;;;;;21.67;5.75;;;7.50;99.90;;;;;;7411430;19;20014;-87
2023/01/31 10:28:05;;;;;;;19.92;5.38;;;7.50;99.90;;;;;;7405971;19;20406;-86
2023/01/31 10:30:44;;;;;;;20.75;5.20;;;7.40;99.90;;;;;;7408554;19;20022;-86
2023/01/31 10:33:39;;;;;;;18.58;5.25;;;7.40;99.90;;;;;;7405062;19;20050;-87
2023/01/31 10:36:35;;;;;;;18.55;5.82;;;7.40;99.90;;;;;;7380038;19;20015;-86
2023/01/31 10:39:23;;;;;;;20.02;5.15;;;7.30;99.90;;;;;;7375239;19;20082;-86
2023/01/31 10:42:30;;;;;;;17.92;5.65;;;7.30;99.90;;;;;;7379439;19;20109;-86
2023/01/31 10:45:20;;;;;;;18.35;5.47;;;7.40;99.90;;;;;;7378390;19;20465;-87
2023/01/31 10:48:09;;;;;;;24.13;5.35;;;7.40;99.90;;;;;;7377047;19;20073;-86
2023/01/31 10:50:58;;;;;;;20.13;5.85;;;7.30;99.90;;;;;;7374297;19;20023;-86
2023/01/31 10:53:47;;;;;;;27.13;7.25;;;7.20;99.90;;;;;;7379562;19;20015;-86
2023/01/31 10:56:34;;;;;;;24.48;5.68;;;7.20;99.90;;;;;;7380911;19;20110;-86
2023/01/31 10:59:06;;;;;;;18.23;5.65;;;7.10;99.90;;;;;;7381343;19;20011;-87
2023/01/31 11:01:35;;;;;;;22.05;6.28;;;7.10;99.90;;;;;;7381231;19;20749;-86
2023/01/31 11:04:07;;;;;;;18.77;6.25;;;7.00;99.90;;;;;;7385791;19;20018;-85
2023/01/31 11:06:34;;;;;;;21.48;6.28;;;7.10;99.90;;;;;;7381340;19;20018;-86
2023/01/31 11:09:10;;;;;;;19.17;6.85;;;7.10;99.90;;;;;;7378071;19;20023;-86
2023/01/31 11:11:59;;;;;;;23.05;6.50;;;7.10;99.90;;;;;;7379002;19;20501;-87
2023/01/31 11:14:28;;;;;;;27.55;6.50;;;7.10;99.90;;;;;;7380677;19;20038;-86
2023/01/31 11:17:06;;;;;;;26.70;7.65;;;7.10;99.90;;;;;;7379389;19;20492;-86
2023/01/31 11:19:54;;;;;;;28.27;7.72;;;7.10;99.90;;;;;;7379076;19;20092;-86
2023/01/31 11:22:34;;;;;;;23.05;7.43;;;7.20;99.90;;;;;;7376669;19;20021;-85
2023/01/31 11:25:05;;;;;;;28.20;7.18;;;7.20;99.90;;;;;;7381016;19;20041;-87
2023/01/31 11:27:43;;;;;;;30.75;6.88;;;7.20;99.90;;;;;;7379908;19;20015;-87
2023/01/31 11:30:33;;;;;;;30.60;6.97;;;7.20;99.90;;;;;;7378056;19;20033;-86
2023/01/31 11:33:01;;;;;;;33.33;7.07;;;7.20;99.90;;;;;;7376972;19;20014;-86
2023/01/31 11:35:30;;;;;;;22.27;5.95;;;7.20;99.90;;;;;;7380768;19;20018;-86
2023/01/31 11:38:21;;;;;;;28.73;6.13;;;7.20;99.90;;;;;;7377387;19;20553;-86
2023/01/31 11:40:48;;;;;;;20.95;6.35;;;7.20;99.90;;;;;;7379248;19;20492;-87
2023/01/31 11:43:18;;;;;;;28.98;7.38;;;7.20;99.90;;;;;;7374025;19;20074;-86
2023/01/31 11:45:53;;;;;;;31.30;6.18;;;7.20;99.90;;;;;;7375516;19;20041;-86
2023/01/31 11:48:31;;;;;;;23.58;6.72;;;7.20;99.90;;;;;;7380418;19;20018;-86
2023/01/31 11:51:01;;;;;;;25.42;6.60;;;7.20;99.90;;;;;;7381089;19;20408;-86
2023/01/31 11:53:49;;;;;;;37.97;6.45;;;7.20;99.90;;;;;;7378803;19;20577;-86
2023/01/31 11:56:21;;;;;;;23.13;5.93;;;7.20;99.90;;;;;;7378298;19;20018;-86
2023/01/31 11:58:57;;;;;;;24.75;7.47;;;7.20;99.90;;;;;;7380371;19;20078;-87
2023/01/31 12:01:25;;;;;;;30.92;6.63;;;7.20;99.90;;;;;;7380965;19;20046;-86
2023/01/31 12:03:59;;;;;;;25.13;6.10;;;7.20;99.90;;;;;;7383279;19;20011;-87
2023/01/31 12:06:29;;;;;;;24.58;5.43;;;7.30;99.90;;;;;;7379477;19;20034;-86
2023/01/31 12:08:57;;;;;;;22.23;5.93;;;7.30;99.90;;;;;;7376808;19;20042;-87
2023/01/31 12:11:33;;;;;;;20.90;6.00;;;7.40;99.90;;;;;;7376093;19;20074;-86
2023/01/31 12:14:16;;;;;;;27.42;6.18;;;7.40;99.90;;;;;;7376411;19;20492;-87
2023/01/31 12:16:56;;;;;;;19.88;5.53;;;7.50;99.90;;;;;;7379249;19;20011;-86
2023/01/31 12:19:56;;;;;;;26.50;5.30;;;7.50;99.90;;;;;;7379770;19;20018;-87
2023/01/31 12:22:42;;;;;;;28.95;6.63;;;7.60;99.90;;;;;;7380673;19;20022;-86
2023/01/31 12:25:51;;;;;;;34.75;5.75;;;7.60;99.90;;;;;;7380394;19;20019;-87
2023/01/31 12:28:43;;;;;;;27.90;6.00;;;7.60;99.90;;;;;;7378395;19;20366;-87
2023/01/31 12:31:23;;;;;;;25.75;5.60;;;7.70;99.90;;;;;;7375842;19;20352;-87
2023/01/31 12:34:08;;;;;;;17.08;4.85;;;7.70;99.90;;;;;;7378247;19;20468;-86
2023/01/31 12:36:47;;;;;;;21.58;5.75;;;7.80;99.90;;;;;;7377158;19;20015;-87
2023/01/31 12:39:35;;;;;;;15.88;4.60;;;7.80;99.90;;;;;;7380022;19;20597;-86
2023/01/31 12:42:31;;;;;;;18.98;5.22;;;7.90;99.90;;;;;;7376073;19;20526;-86
2023/01/31 12:45:17;;;;;;;19.17;5.13;;;7.90;99.90;;;;;;7381206;19;20021;-86
2023/01/31 12:48:03;;;;;;;20.33;5.38;;;7.90;99.90;;;;;;7381261;19;20010;-87
2023/01/31 12:51:14;;;;;;;21.50;5.43;;;7.90;99.90;;;;;;7379908;19;20014;-86
2023/01/31 12:54:07;;;;;;;22.33;5.47;;;8.00;99.90;;;;;;7379337;19;20463;-87
2023/01/31 12:56:46;;;;;;;24.55;5.50;;;8.10;99.90;;;;;;7374986;19;20018;-86
2023/01/31 12:59:32;;;;;;;18.42;4.43;;;8.10;99.90;;;;;;7376519;19;20387;-87
2023/01/31 13:02:37;;;;;;;16.05;4.72;;;8.20;99.90;;;;;;7377463;19;20069;-87
2023/01/31 13:05:33;;;;;;;18.80;4.20;;;8.30;99.90;;;;;;7377999;19;20049;-86
2023/01/31 13:08:10;;;;;;;19.37;4.03;;;8.30;99.90;;;;;;7379952;19;20022;-86
2023/01/31 13:11:06;;;;;;;17.95;4.63;;;8.40;99.90;;;;;;7377107;19;20279;-86
2023/01/31 13:13:42;;;;;;;17.50;4.00;;;8.50;99.90;;;;;;7375588;19;20018;-86
2023/01/31 13:16:19;;;;;;;13.30;3.90;;;8.60;99.90;;;;;;7382531;19;20019;-86
2023/01/31 13:18:53;;;;;;;12.10;3.85;;;9.30;99.90;;;;;;7377193;19;20023;-87
2023/01/31 13:21:25;;;;;;;17.52;3.97;;;9.60;99.90;;;;;;7374575;19;20030;-87
2023/01/31 13:24:10;;;;;;;16.80;4.40;;;10.10;99.90;;;;;;7373802;19;20110;-87
2023/01/31 13:26:53;;;;;;;13.98;3.75;;;10.20;99.90;;;;;;7374491;19;20015;-87
2023/01/31 13:29:36;;;;;;;10.20;3.40;;;10.20;99.90;;;;;;7370786;19;20025;-87
2023/01/31 13:32:34;;;;;;;13.88;4.22;;;10.10;99.90;;;;;;7371893;19;20030;-86
2023/01/31 13:35:16;;;;;;;13.63;3.97;;;9.80;99.90;;;;;;7373397;19;20015;-87
2023/01/31 13:38:04;;;;;;;12.18;3.22;;;9.60;99.90;;;;;;7373341;19;20106;-86
2023/01/31 13:40:55;;;;;;;15.25;3.28;;;9.60;99.90;;;;;;7373098;19;20019;-86
2023/01/31 13:43:21;;;;;;;16.33;3.58;;;9.60;99.90;;;;;;7371331;19;20025;-87
2023/01/31 13:45:58;;;;;;;10.30;3.40;;;9.50;99.90;;;;;;7374139;19;20021;-87
2023/01/31 13:48:34;;;;;;;16.08;3.20;;;9.60;99.90;;;;;;7374837;19;20508;-86
2023/01/31 13:51:16;;;;;;;14.85;3.25;;;9.50;99.90;;;;;;7373981;19;20373;-86
2023/01/31 13:53:49;;;;;;;13.02;3.55;;;9.40;99.90;;;;;;7371111;19;20040;-86
2023/01/31 13:56:30;;;;;;;11.13;3.40;;;9.30;99.90;;;;;;7374151;19;20018;-87
2023/01/31 13:58:58;;;;;;;10.00;3.05;;;9.20;99.90;;;;;;7375544;19;20038;-86
2023/01/31 14:01:29;;;;;;;12.35;3.78;;;9.10;99.90;;;;;;7375685;19;20502;-87
2023/01/31 14:04:14;;;;;;;17.38;4.07;;;9.10;99.90;;;;;;7376561;19;20026;-87
2023/01/31 14:06:55;;;;;;;13.10;3.72;;;9.00;99.90;;;;;;7373696;19;20039;-88
2023/01/31 14:09:23;;;;;;;15.75;3.65;;;9.00;99.90;;;;;;7376599;19;20039;-87
2023/01/31 14:11:50;;;;;;;10.93;3.00;;;9.00;99.90;;;;;;7383002;19;20354;-87
2023/01/31 14:14:36;;;;;;;14.55;3.65;;;9.00;99.90;;;;;;7383709;19;20025;-86
2023/01/31 14:17:05;;;;;;;15.55;3.60;;;9.00;99.90;;;;;;7380188;19;20025;-87
2023/01/31 14:19:54;;;;;;;12.13;3.53;;;8.90;99.90;;;;;;7377210;19;20023;-87
2023/01/31 14:22:35;;;;;;;14.05;3.28;;;8.90;99.90;;;;;;7376024;19;20109;-87
2023/01/31 14:25:07;;;;;;;11.25;3.30;;;8.90;99.90;;;;;;7380193;19;20022;-86
2023/01/31 14:27:55;;;;;;;14.55;3.35;;;8.80;99.90;;;;;;7379487;19;20019;-87
2023/01/31 14:30:35;;;;;;;11.13;3.65;;;8.80;99.90;;;;;;7377681;19;20014;-86
2023/01/31 14:33:12;;;;;;;14.07;3.90;;;8.80;99.90;;;;;;7380065;19;20023;-87
2023/01/31 14:36:00;;;;;;;11.90;3.80;;;8.70;99.90;;;;;;7377079;19;20547;-87
2023/01/31 14:38:45;;;;;;;14.52;3.47;;;8.60;99.90;;;;;;7381869;19;20070;-87
2023/01/31 14:41:37;;;;;;;14.80;4.47;;;8.60;99.90;;;;;;7382416;19;20093;-87
2023/01/31 14:44:16;;;;;;;19.05;4.20;;;8.60;99.90;;;;;;7383968;19;20543;-87
2023/01/31 14:47:17;;;;;;;17.40;4.40;;;8.60;99.90;;;;;;7381593;19;20021;-87
2023/01/31 14:49:53;;;;;;;13.90;3.55;;;8.60;99.90;;;;;;7382027;19;20014;-86
2023/01/31 14:52:42;;;;;;;13.88;3.95;;;8.70;99.90;;;;;;7379657;19;20042;-87
2023/01/31 14:55:40;;;;;;;16.25;4.30;;;8.70;99.90;;;;;;7385577;19;20026;-87
2023/01/31 14:58:19;;;;;;;18.25;4.47;;;8.70;99.90;;;;;;7383501;19;20513;-87
2023/01/31 15:00:53;;;;;;;17.92;4.55;;;8.60;99.90;;;;;;7376101;19;20029;-87
2023/01/31 15:03:30;;;;;;;19.25;4.70;;;8.60;99.90;;;;;;7380103;19;20635;-87
2023/01/31 15:06:21;;;;;;;19.42;4.93;;;8.60;99.90;;;;;;7379269;19;20022;-87
2023/01/31 15:09:10;;;;;;;15.38;4.22;;;8.50;99.90;;;;;;7376080;19;20010;-86
2023/01/31 15:11:40;;;;;;;18.65;4.10;;;8.50;99.90;;;;;;7378472;19;20033;-87
2023/01/31 15:14:37;;;;;;;19.83;5.28;;;8.50;99.90;;;;;;7377836;19;20006;-86
2023/01/31 15:17:36;;;;;;;21.38;4.05;;;8.60;99.90;;;;;;7384238;19;20027;-84
2023/01/31 15:20:16;;;;;;;15.68;3.55;;;8.50;99.90;;;;;;7379304;19;20019;-84
2023/01/31 15:22:45;;;;;;;16.17;3.65;;;8.50;99.90;;;;;;7373989;19;20026;-86
2023/01/31 15:25:38;;;;;;;26.20;5.05;;;8.50;99.90;;;;;;7379467;19;20025;-86
2023/01/31 15:28:14;;;;;;;21.85;4.20;;;8.50;99.90;;;;;;7378206;19;20021;-86
2023/01/31 15:30:41;;;;;;;15.55;3.88;;;8.70;99.90;;;;;;7379102;19;20056;-86
2023/01/31 15:33:30;;;;;;;26.02;5.43;;;8.70;99.90;;;;;;7377589;19;20022;-86
2023/01/31 15:36:18;;;;;;;25.35;4.25;;;8.60;99.90;;;;;;7377092;19;20450;-86
2023/01/31 15:38:55;;;;;;;19.98;4.28;;;8.50;99.90;;;;;;7378936;19;20518;-86
2023/01/31 15:41:23;;;;;;;15.23;4.40;;;8.50;99.90;;;;;;7378976;19;20585;-86
2023/01/31 15:43:57;;;;;;;26.75;5.50;;;8.50;99.90;;;;;;7377633;19;20026;-86
2023/01/31 15:46:32;;;;;;;16.50;4.05;;;8.50;99.90;;;;;;7375497;19;20018;-85
2023/01/31 15:48:59;;;;;;;;;;;8.50;99.90;;;;;;7377015;19;20592;-87
2023/01/31 15:51:27;;;;;;;19.17;4.68;;;8.40;99.90;;;;;;7377008;19;19954;-86
2023/01/31 15:54:05;;;;;;;19.60;4.65;;;8.40;99.90;;;;;;7376563;19;20018;-86
2023/01/31 15:56:39;;;;;;;27.05;5.10;;;8.30;99.90;;;;;;7377832;19;20482;-86
2023/01/31 15:59:12;;;;;;;18.55;4.35;;;8.20;99.90;;;;;;7377604;19;20018;-87
2023/01/31 16:01:44;;;;;;;24.35;5.80;;;8.10;99.90;;;;;;7377285;19;20464;-87
2023/01/31 16:04:12;;;;;;;20.00;4.43;;;8.00;99.90;;;;;;7375928;19;20121;-86
2023/01/31 16:06:39;;;;;;;22.55;4.15;;;8.00;99.90;;;;;;7377458;19;20035;-86
2023/01/31 16:09:20;;;;;;;22.77;4.63;;;8.00;99.90;;;;;;7378052;19;20379;-86
2023/01/31 16:12:09;;;;;;;22.67;4.45;;;7.90;99.90;;;;;;7380163;19;20055;-86
2023/01/31 16:14:36;;;;;;;22.60;5.30;;;7.80;99.90;;;;;;7379611;19;20007;-86
2023/01/31 16:17:09;;;;;;;21.48;4.55;;;7.80;99.90;;;;;;7381187;19;20475;-86
2023/01/31 16:19:35;;;;;;;24.85;6.07;;;7.70;99.90;;;;;;7380294;19;20046;-86
2023/01/31 16:22:02;;;;;;;19.67;4.45;;;7.60;99.90;;;;;;7378767;19;20028;-86
2023/01/31 16:24:30;;;;;;;17.73;4.10;;;7.60;99.90;;;;;;7380545;19;20017;-86
2023/01/31 16:27:16;;;;;;;21.63;5.82;;;7.70;99.90;;;;;;7382080;19;20010;-86
2023/01/31 16:29:47;;;;;;;19.75;4.05;;;7.60;99.90;;;;;;7377378;19;20022;-87
2023/01/31 16:32:24;;;;;;;24.55;4.85;;;7.60;99.90;;;;;;7374514;19;20029;-86
2023/01/31 16:34:58;;;;;;;23.73;5.82;;;7.50;99.90;;;;;;7374889;19;20018;-86
2023/01/31 16:37:35;;;;;;;20.77;5.60;;;7.40;99.90;;;;;;7378175;19;20040;-87
2023/01/31 16:40:07;;;;;;;20.73;4.32;;;7.30;99.90;;;;;;7375648;19;20022;-85
2023/01/31 16:42:35;;;;;;;24.52;5.30;;;7.30;99.90;;;;;;7377791;19;20027;-85
2023/01/31 16:45:02;;;;;;;23.02;4.63;;;7.20;99.90;;;;;;7375672;19;20023;-86
2023/01/31 16:47:41;;;;;;;21.05;4.18;;;7.20;99.90;;;;;;7375573;19;20014;-85
2023/01/31 16:50:20;;;;;;;30.70;5.57;;;7.20;99.90;;;;;;7376862;19;20037;-85
2023/01/31 16:53:05;;;;;;;22.90;5.57;;;7.10;99.90;;;;;;7376159;19;20057;-85
2023/01/31 16:55:31;;;;;;;20.13;4.05;;;7.00;99.90;;;;;;7377142;19;20017;-86
2023/01/31 16:57:59;;;;;;;26.17;5.50;;;7.00;99.90;;;;;;7378696;19;20023;-86
2023/01/31 17:00:35;;;;;;;21.15;5.10;;;6.90;99.90;;;;;;7367082;19;20023;-87
2023/01/31 17:03:02;;;;;;;19.08;4.50;;;6.90;99.90;;;;;;7371843;19;20010;-87
2023/01/31 17:05:43;;;;;;;22.77;5.03;;;6.90;99.90;;;;;;7368713;19;20022;-87
2023/01/31 17:08:22;;;;;;;28.80;4.78;;;6.90;99.90;;;;;;7368007;19;20046;-88
2023/01/31 17:10:54;;;;;;;22.25;4.43;;;6.80;99.90;;;;;;7373282;19;20014;-87
2023/01/31 17:13:25;;;;;;;20.90;4.75;;;6.80;99.90;;;;;;7372483;19;20035;-87
2023/01/31 17:15:52;;;;;;;17.40;4.65;;;6.80;99.90;;;;;;7374729;19;20018;-87
2023/01/31 17:18:19;;;;;;;23.45;5.85;;;6.80;99.90;;;;;;7373543;19;20026;-87
2023/01/31 17:20:54;;;;;;;28.20;5.00;;;6.70;99.90;;;;;;7377229;19;20048;-87
2023/01/31 17:23:21;;;;;;;26.02;5.95;;;6.70;99.90;;;;;;7375025;19;20027;-86
2023/01/31 17:25:51;;;;;;;23.65;5.50;;;6.60;99.90;;;;;;7373849;19;20604;-86
2023/01/31 17:28:22;;;;;;;25.17;5.78;;;6.60;99.90;;;;;;7375402;19;20413;-86
2023/01/31 17:30:48;;;;;;;24.02;4.80;;;6.60;99.90;;;;;;7378822;19;20282;-86
2023/01/31 17:33:15;;;;;;;21.52;4.68;;;6.70;99.90;;;;;;7377077;19;20060;-86
2023/01/31 17:35:48;;;;;;;24.73;5.28;;;6.60;99.90;;;;;;7378853;19;20502;-85
2023/01/31 17:38:15;;;;;;;20.42;4.45;;;6.60;99.90;;;;;;7374924;19;20427;-85
2023/01/31 17:40:47;;;;;;;28.67;5.35;;;6.60;99.90;;;;;;7373554;19;20011;-84
2023/01/31 17:43:20;;;;;;;24.05;5.30;;;6.60;99.90;;;;;;7377618;19;20025;-86
2023/01/31 17:45:52;;;;;;;21.08;4.88;;;6.50;99.90;;;;;;7382258;19;20011;-85
2023/01/31 17:48:19;;;;;;;22.95;4.47;;;6.60;99.90;;;;;;7380390;19;20388;-86
2023/01/31 17:50:48;;;;;;;19.73;4.40;;;6.50;99.90;;;;;;7379620;19;20045;-86
2023/01/31 17:53:15;;;;;;;27.23;5.03;;;6.50;99.90;;;;;;7380408;19;20036;-86
2023/01/31 17:55:42;;;;;;;17.63;5.25;;;6.50;99.90;;;;;;7382748;19;20019;-87
2023/01/31 17:58:12;;;;;;;27.17;5.47;;;6.40;99.90;;;;;;7380239;19;20377;-88
2023/01/31 18:00:41;;;;;;;26.27;4.80;;;6.40;99.90;;;;;;7378799;19;20018;-87
2023/01/31 18:03:17;;;;;;;22.45;4.80;;;6.40;99.90;;;;;;7382791;19;20077;-87
2023/01/31 18:05:46;;;;;;;28.77;5.55;;;6.30;99.90;;;;;;7381014;19;20022;-86
2023/01/31 18:08:14;;;;;;;23.45;6.20;;;6.30;99.90;;;;;;7384936;19;20033;-86
2023/01/31 18:10:41;;;;;;;20.08;5.00;;;6.30;99.90;;;;;;7377737;19;20083;-87
2023/01/31 18:13:09;;;;;;;65.22;36.05;;;6.20;99.90;;;;;;7376064;19;20023;-86
2023/01/31 18:15:38;;;;;;;23.17;4.88;;;6.40;99.90;;;;;;7377259;19;20023;-86
2023/01/31 18:18:09;;;;;;;22.42;4.25;;;6.30;99.90;;;;;;7377275;19;20593;-87
2023/01/31 18:20:38;;;;;;;17.45;4.18;;;6.20;99.90;;;;;;7377638;19;20019;-86
2023/01/31 18:23:05;;;;;;;29.60;5.38;;;6.20;99.90;;;;;;7377282;19;20015;-86
2023/01/31 18:25:32;;;;;;;20.25;4.63;;;6.10;99.90;;;;;;7378833;19;20027;-86
2023/01/31 18:28:01;;;;;;;21.25;4.88;;;6.10;99.90;;;;;;7381351;19;20046;-86
2023/01/31 18:30:31;;;;;;;18.60;4.38;;;6.20;99.90;;;;;;7385684;19;20090;-84
2023/01/31 18:32:57;;;;;;;15.85;4.07;;;6.20;99.90;;;;;;7383902;19;20042;-85
2023/01/31 18:35:25;;;;;;;23.75;5.40;;;6.20;99.90;;;;;;7378956;19;20048;-85
2023/01/31 18:37:54;;;;;;;23.20;4.80;;;6.20;99.90;;;;;;7382414;19;20042;-86
2023/01/31 18:40:20;;;;;;;24.60;5.13;;;6.20;99.90;;;;;;7385618;19;20022;-86
2023/01/31 18:42:47;;;;;;;20.80;4.65;;;6.30;99.90;;;;;;7382326;19;20033;-86
2023/01/31 18:45:15;;;;;;;22.67;4.53;;;6.20;99.90;;;;;;7382429;19;20038;-86
2023/01/31 18:47:44;;;;;;;24.05;4.72;;;6.30;99.90;;;;;;7382874;19;20019;-86
2023/01/31 18:50:12;;;;;;;21.33;4.45;;;6.30;99.90;;;;;;7377403;19;20029;-85
2023/01/31 18:52:42;;;;;;;23.25;5.47;;;6.30;99.90;;;;;;7378965;19;20048;-86
2023/01/31 18:55:09;;;;;;;29.20;5.45;;;6.30;99.90;;;;;;7377430;19;20014;-86
2023/01/31 18:57:37;;;;;;;19.70;4.20;;;6.30;99.90;;;;;;7381256;19;20020;-86
2023/01/31 19:00:05;;;;;;;23.02;4.40;;;6.30;99.90;;;;;;7378840;19;20042;-86
2023/01/31 19:02:31;;;;;;;20.77;4.97;;;6.20;99.90;;;;;;7380691;19;20020;-86
2023/01/31 19:04:59;;;;;;;15.63;4.80;;;6.20;99.90;;;;;;7381511;19;20016;-86
2023/01/31 23:11:50;;;;;;;18.98;3.88;;;5.80;99.90;;;;;;7400052;19;20501;-69
2023/01/31 23:14:19;;;;;;;26.48;5.53;;;5.90;99.90;;;;;;7372336;19;20422;-64
2023/01/31 23:19:31;;;;;;;27.00;4.88;;;5.90;99.90;;;;;;7369962;19;20025;-68
2023/01/31 23:22:05;;;;;;;19.83;4.95;;;5.80;99.90;;;;;;7370672;19;20868;-69
2023/01/31 23:24:42;;;;;;;20.00;4.47;;;5.80;99.90;;;;;;7375345;19;20019;-64
2023/01/31 23:27:09;;;;;;;22.85;5.00;;;5.90;99.90;;;;;;7372105;19;20019;-68
2023/01/31 23:29:44;;;;;;;28.02;6.18;;;5.80;99.90;;;;;;7371992;19;20014;-63
2023/01/31 23:32:11;;;;;;;25.98;5.55;;;5.80;99.90;;;;;;7368093;19;20019;-63
2023/01/31 23:34:42;;;;;;;23.92;4.72;;;5.90;99.90;;;;;;7370081;19;20541;-68
2023/01/31 23:37:08;;;;;;;21.83;5.13;;;5.90;99.90;;;;;;7370468;19;20019;-64
2023/01/31 23:39:49;;;;;;;22.65;5.13;;;5.90;99.90;;;;;;7364745;19;20543;-68
2023/01/31 23:42:15;;;;;;;27.75;5.95;;;5.90;99.90;;;;;;7371626;19;20018;-68
2023/01/31 23:44:45;;;;;;;21.60;5.10;;;6.00;99.90;;;;;;7371891;19;20497;-63
2023/01/31 23:47:11;;;;;;;25.23;5.03;;;5.90;99.90;;;;;;7371875;19;20015;-63
2023/01/31 23:49:38;;;;;;;24.67;5.07;;;6.00;99.90;;;;;;7368404;19;20372;-63
2023/01/31 23:52:05;;;;;;;23.33;5.28;;;6.00;99.90;;;;;;7372878;19;20521;-68
2023/01/31 23:54:42;;;;;;;33.45;6.65;;;6.00;99.90;;;;;;7371919;19;20065;-63
2023/01/31 23:57:09;;;;;;;26.13;4.97;;;6.10;99.90;;;;;;7367879;19;20039;-62
2023/01/31 23:59:36;;;;;;;23.70;5.15;;;6.10;99.90;;;;;;7368255;19;20707;-63
